sensor_id;sensor_type;location;lat;lon;timestamp;P1;durP1;ratioP1;P2;durP2;ratioP2
19059;SDS011;9663;48.996;8.334;2024-01-15T00:00:09;19.63;;;10.93;;
19059;SDS011;9663;48.996;8.334;2024-01-15T00:02:36;19.95;;;10.18;;
19059;SDS011;9663;48.996;8.334;2024-01-15T00:05:02;20.67;;;10.75;;
19059;SDS011;9663;48.996;8.334;2024-01-15T00:07:28;18.80;;;9.98;;
19059;SDS011;9663;48.996;8.334;2024-01-15T00:09:54;19.15;;;9.60;;
19059;SDS011;9663;48.996;8.334;2024-01-15T00:12:19;19.08;;;9.65;;
19059;SDS011;9663;48.996;8.334;2024-01-15T00:14:45;18.58;;;10.15;;
19059;SDS011;9663;48.996;8.334;2024-01-15T00:17:11;18.25;;;10.52;;
19059;SDS011;9663;48.996;8.334;2024-01-15T00:19:38;20.63;;;10.55;;
19059;SDS011;9663;48.996;8.334;2024-01-15T00:22:03;19.38;;;10.48;;
19059;SDS011;9663;48.996;8.334;2024-01-15T00:24:29;19.52;;;10.65;;
19059;SDS011;9663;48.996;8.334;2024-01-15T00:26:55;20.63;;;10.55;;
19059;SDS011;9663;48.996;8.334;2024-01-15T00:29:21;19.20;;;10.18;;
19059;SDS011;9663;48.996;8.334;2024-01-15T00:31:46;20.27;;;10.57;;
19059;SDS011;9663;48.996;8.334;2024-01-15T00:34:12;21.67;;;11.07;;
19059;SDS011;9663;48.996;8.334;2024-01-15T00:36:38;20.77;;;10.65;;
19059;SDS011;9663;48.996;8.334;2024-01-15T00:39:03;20.98;;;11.70;;
19059;SDS011;9663;48.996;8.334;2024-01-15T00:41:32;23.55;;;11.75;;
19059;SDS011;9663;48.996;8.334;2024-01-15T00:43:58;21.25;;;11.60;;
19059;SDS011;9663;48.996;8.334;2024-01-15T00:46:25;22.42;;;11.18;;
19059;SDS011;9663;48.996;8.334;2024-01-15T00:48:51;22.00;;;11.25;;
19059;SDS011;9663;48.996;8.334;2024-01-15T00:51:16;21.20;;;11.57;;
19059;SDS011;9663;48.996;8.334;2024-01-15T00:53:42;25.70;;;12.13;;
19059;SDS011;9663;48.996;8.334;2024-01-15T00:56:08;22.15;;;12.00;;
19059;SDS011;9663;48.996;8.334;2024-01-15T00:58:33;21.13;;;10.85;;
19059;SDS011;9663;48.996;8.334;2024-01-15T01:01:00;25.05;;;12.85;;
19059;SDS011;9663;48.996;8.334;2024-01-15T01:03:26;23.35;;;12.20;;
19059;SDS011;9663;48.996;8.334;2024-01-15T01:05:52;20.75;;;11.75;;
19059;SDS011;9663;48.996;8.334;2024-01-15T01:08:18;24.65;;;12.82;;
19059;SDS011;9663;48.996;8.334;2024-01-15T01:10:43;22.85;;;12.30;;
19059;SDS011;9663;48.996;8.334;2024-01-15T01:13:09;22.13;;;12.20;;
19059;SDS011;9663;48.996;8.334;2024-01-15T01:15:35;20.63;;;11.27;;
19059;SDS011;9663;48.996;8.334;2024-01-15T01:18:00;22.30;;;11.60;;
19059;SDS011;9663;48.996;8.334;2024-01-15T01:20:26;21.10;;;11.52;;
19059;SDS011;9663;48.996;8.334;2024-01-15T01:22:52;21.65;;;12.40;;
19059;SDS011;9663;48.996;8.334;2024-01-15T01:25:18;23.38;;;12.35;;
19059;SDS011;9663;48.996;8.334;2024-01-15T01:27:44;20.48;;;11.50;;
19059;SDS011;9663;48.996;8.334;2024-01-15T01:30:10;22.75;;;12.05;;
19059;SDS011;9663;48.996;8.334;2024-01-15T01:32:37;23.75;;;12.48;;
19059;SDS011;9663;48.996;8.334;2024-01-15T01:35:02;23.33;;;12.38;;
19059;SDS011;9663;48.996;8.334;2024-01-15T01:37:30;23.02;;;12.23;;
19059;SDS011;9663;48.996;8.334;2024-01-15T01:39:55;20.70;;;11.27;;
19059;SDS011;9663;48.996;8.334;2024-01-15T01:42:21;21.38;;;11.77;;
19059;SDS011;9663;48.996;8.334;2024-01-15T01:44:47;21.63;;;11.93;;
19059;SDS011;9663;48.996;8.334;2024-01-15T01:47:12;20.30;;;10.48;;
19059;SDS011;9663;48.996;8.334;2024-01-15T01:49:39;19.60;;;11.25;;
19059;SDS011;9663;48.996;8.334;2024-01-15T01:52:06;19.85;;;10.75;;
19059;SDS011;9663;48.996;8.334;2024-01-15T01:54:34;21.23;;;11.35;;
19059;SDS011;9663;48.996;8.334;2024-01-15T01:57:03;22.38;;;11.50;;
19059;SDS011;9663;48.996;8.334;2024-01-15T01:59:30;20.63;;;11.43;;
19059;SDS011;9663;48.996;8.334;2024-01-15T02:02:00;19.77;;;11.57;;
19059;SDS011;9663;48.996;8.334;2024-01-15T02:04:28;22.92;;;11.98;;
19059;SDS011;9663;48.996;8.334;2024-01-15T02:06:56;21.25;;;11.23;;
19059;SDS011;9663;48.996;8.334;2024-01-15T02:09:22;20.58;;;10.32;;
19059;SDS011;9663;48.996;8.334;2024-01-15T02:11:48;19.10;;;10.07;;
19059;SDS011;9663;48.996;8.334;2024-01-15T02:14:14;19.00;;;10.40;;
19059;SDS011;9663;48.996;8.334;2024-01-15T02:16:40;18.58;;;9.98;;
19059;SDS011;9663;48.996;8.334;2024-01-15T02:19:06;18.50;;;9.98;;
19059;SDS011;9663;48.996;8.334;2024-01-15T02:21:32;19.73;;;10.95;;
19059;SDS011;9663;48.996;8.334;2024-01-15T02:23:58;20.65;;;10.93;;
19059;SDS011;9663;48.996;8.334;2024-01-15T02:26:25;20.73;;;10.95;;
19059;SDS011;9663;48.996;8.334;2024-01-15T02:28:51;20.98;;;10.48;;
19059;SDS011;9663;48.996;8.334;2024-01-15T02:31:17;20.00;;;10.98;;
19059;SDS011;9663;48.996;8.334;2024-01-15T02:33:43;17.10;;;9.82;;
19059;SDS011;9663;48.996;8.334;2024-01-15T02:36:11;19.50;;;10.23;;
19059;SDS011;9663;48.996;8.334;2024-01-15T02:38:37;18.88;;;9.65;;
19059;SDS011;9663;48.996;8.334;2024-01-15T02:41:03;18.10;;;9.30;;
19059;SDS011;9663;48.996;8.334;2024-01-15T02:43:29;17.88;;;10.40;;
19059;SDS011;9663;48.996;8.334;2024-01-15T02:45:55;18.02;;;9.65;;
19059;SDS011;9663;48.996;8.334;2024-01-15T02:48:21;17.92;;;9.48;;
19059;SDS011;9663;48.996;8.334;2024-01-15T02:50:46;17.13;;;9.43;;
19059;SDS011;9663;48.996;8.334;2024-01-15T02:53:12;17.90;;;9.50;;
19059;SDS011;9663;48.996;8.334;2024-01-15T02:55:38;15.23;;;8.57;;
19059;SDS011;9663;48.996;8.334;2024-01-15T02:58:03;16.40;;;8.70;;
19059;SDS011;9663;48.996;8.334;2024-01-15T03:00:29;17.85;;;9.38;;
19059;SDS011;9663;48.996;8.334;2024-01-15T03:02:55;18.42;;;10.10;;
19059;SDS011;9663;48.996;8.334;2024-01-15T03:05:21;18.13;;;9.27;;
19059;SDS011;9663;48.996;8.334;2024-01-15T03:07:47;17.95;;;9.48;;
19059;SDS011;9663;48.996;8.334;2024-01-15T03:10:13;17.30;;;9.65;;
19059;SDS011;9663;48.996;8.334;2024-01-15T03:12:38;20.67;;;10.07;;
19059;SDS011;9663;48.996;8.334;2024-01-15T03:15:04;17.55;;;9.27;;
19059;SDS011;9663;48.996;8.334;2024-01-15T03:17:31;18.20;;;9.65;;
19059;SDS011;9663;48.996;8.334;2024-01-15T03:19:56;16.88;;;8.85;;
19059;SDS011;9663;48.996;8.334;2024-01-15T03:22:22;19.42;;;10.05;;
19059;SDS011;9663;48.996;8.334;2024-01-15T03:24:48;17.67;;;9.43;;
19059;SDS011;9663;48.996;8.334;2024-01-15T03:27:14;18.08;;;9.98;;
19059;SDS011;9663;48.996;8.334;2024-01-15T03:29:40;16.52;;;8.60;;
19059;SDS011;9663;48.996;8.334;2024-01-15T03:32:06;15.75;;;8.52;;
19059;SDS011;9663;48.996;8.334;2024-01-15T03:34:32;16.23;;;8.57;;
19059;SDS011;9663;48.996;8.334;2024-01-15T03:36:58;14.55;;;7.53;;
19059;SDS011;9663;48.996;8.334;2024-01-15T03:39:25;16.13;;;8.82;;
19059;SDS011;9663;48.996;8.334;2024-01-15T03:41:51;16.25;;;9.15;;
19059;SDS011;9663;48.996;8.334;2024-01-15T03:44:16;18.13;;;9.77;;
19059;SDS011;9663;48.996;8.334;2024-01-15T03:46:42;15.43;;;9.05;;
19059;SDS011;9663;48.996;8.334;2024-01-15T03:49:08;16.67;;;8.85;;
19059;SDS011;9663;48.996;8.334;2024-01-15T03:51:34;16.38;;;8.40;;
19059;SDS011;9663;48.996;8.334;2024-01-15T03:53:59;17.45;;;8.68;;
19059;SDS011;9663;48.996;8.334;2024-01-15T03:56:25;16.90;;;8.43;;
19059;SDS011;9663;48.996;8.334;2024-01-15T03:58:51;15.02;;;8.00;;
19059;SDS011;9663;48.996;8.334;2024-01-15T04:01:17;13.38;;;7.75;;
19059;SDS011;9663;48.996;8.334;2024-01-15T04:03:42;15.27;;;7.82;;
19059;SDS011;9663;48.996;8.334;2024-01-15T04:06:08;14.30;;;7.50;;
19059;SDS011;9663;48.996;8.334;2024-01-15T04:08:34;16.23;;;7.95;;
19059;SDS011;9663;48.996;8.334;2024-01-15T04:10:59;15.27;;;8.35;;
19059;SDS011;9663;48.996;8.334;2024-01-15T04:13:26;15.85;;;7.97;;
19059;SDS011;9663;48.996;8.334;2024-01-15T04:15:52;15.68;;;8.32;;
19059;SDS011;9663;48.996;8.334;2024-01-15T04:18:18;15.65;;;8.18;;
19059;SDS011;9663;48.996;8.334;2024-01-15T04:20:44;16.58;;;8.57;;
19059;SDS011;9663;48.996;8.334;2024-01-15T04:23:10;15.82;;;8.75;;
19059;SDS011;9663;48.996;8.334;2024-01-15T04:25:35;17.02;;;8.63;;
19059;SDS011;9663;48.996;8.334;2024-01-15T04:28:01;17.00;;;9.57;;
19059;SDS011;9663;48.996;8.334;2024-01-15T04:30:28;16.27;;;8.43;;
19059;SDS011;9663;48.996;8.334;2024-01-15T04:32:54;17.67;;;8.63;;
19059;SDS011;9663;48.996;8.334;2024-01-15T04:35:19;17.33;;;9.30;;
19059;SDS011;9663;48.996;8.334;2024-01-15T04:37:45;17.75;;;9.02;;
19059;SDS011;9663;48.996;8.334;2024-01-15T04:40:11;14.70;;;8.20;;
19059;SDS011;9663;48.996;8.334;2024-01-15T04:42:37;17.65;;;8.55;;
19059;SDS011;9663;48.996;8.334;2024-01-15T04:45:03;16.83;;;8.73;;
19059;SDS011;9663;48.996;8.334;2024-01-15T04:47:29;16.35;;;8.80;;
19059;SDS011;9663;48.996;8.334;2024-01-15T04:49:55;17.35;;;8.50;;
19059;SDS011;9663;48.996;8.334;2024-01-15T04:52:20;15.48;;;8.57;;
19059;SDS011;9663;48.996;8.334;2024-01-15T04:54:46;15.80;;;8.88;;
19059;SDS011;9663;48.996;8.334;2024-01-15T04:57:12;18.77;;;10.23;;
19059;SDS011;9663;48.996;8.334;2024-01-15T04:59:38;19.48;;;10.00;;
19059;SDS011;9663;48.996;8.334;2024-01-15T05:02:04;17.08;;;9.77;;
19059;SDS011;9663;48.996;8.334;2024-01-15T05:04:30;18.67;;;10.52;;
19059;SDS011;9663;48.996;8.334;2024-01-15T05:06:56;18.52;;;9.98;;
19059;SDS011;9663;48.996;8.334;2024-01-15T05:09:21;21.10;;;10.40;;
19059;SDS011;9663;48.996;8.334;2024-01-15T05:11:47;17.13;;;9.68;;
19059;SDS011;9663;48.996;8.334;2024-01-15T05:14:13;19.90;;;11.55;;
19059;SDS011;9663;48.996;8.334;2024-01-15T05:16:39;17.83;;;10.70;;
19059;SDS011;9663;48.996;8.334;2024-01-15T05:19:11;20.35;;;11.02;;
19059;SDS011;9663;48.996;8.334;2024-01-15T05:21:37;19.67;;;10.15;;
19059;SDS011;9663;48.996;8.334;2024-01-15T05:24:02;19.35;;;9.93;;
19059;SDS011;9663;48.996;8.334;2024-01-15T05:26:29;16.15;;;8.75;;
19059;SDS011;9663;48.996;8.334;2024-01-15T05:28:55;16.58;;;9.00;;
19059;SDS011;9663;48.996;8.334;2024-01-15T05:31:20;14.80;;;8.15;;
19059;SDS011;9663;48.996;8.334;2024-01-15T05:33:48;17.83;;;9.18;;
19059;SDS011;9663;48.996;8.334;2024-01-15T05:36:13;15.85;;;8.82;;
19059;SDS011;9663;48.996;8.334;2024-01-15T05:38:39;17.73;;;9.07;;
19059;SDS011;9663;48.996;8.334;2024-01-15T05:41:05;17.30;;;9.25;;
19059;SDS011;9663;48.996;8.334;2024-01-15T05:43:31;17.25;;;9.20;;
19059;SDS011;9663;48.996;8.334;2024-01-15T05:45:57;18.25;;;9.57;;
19059;SDS011;9663;48.996;8.334;2024-01-15T05:48:23;17.35;;;9.40;;
19059;SDS011;9663;48.996;8.334;2024-01-15T05:50:49;17.20;;;8.93;;
19059;SDS011;9663;48.996;8.334;2024-01-15T05:53:14;17.33;;;8.93;;
19059;SDS011;9663;48.996;8.334;2024-01-15T05:55:40;18.98;;;9.52;;
19059;SDS011;9663;48.996;8.334;2024-01-15T05:58:06;17.80;;;9.07;;
19059;SDS011;9663;48.996;8.334;2024-01-15T06:00:32;16.13;;;8.65;;
19059;SDS011;9663;48.996;8.334;2024-01-15T06:02:59;17.60;;;9.02;;
19059;SDS011;9663;48.996;8.334;2024-01-15T06:05:25;17.40;;;8.85;;
19059;SDS011;9663;48.996;8.334;2024-01-15T06:07:50;15.88;;;8.85;;
19059;SDS011;9663;48.996;8.334;2024-01-15T06:10:16;18.17;;;9.57;;
19059;SDS011;9663;48.996;8.334;2024-01-15T06:12:43;17.42;;;9.90;;
19059;SDS011;9663;48.996;8.334;2024-01-15T06:15:09;17.60;;;9.02;;
19059;SDS011;9663;48.996;8.334;2024-01-15T06:17:35;16.23;;;9.52;;
19059;SDS011;9663;48.996;8.334;2024-01-15T06:20:01;16.58;;;9.30;;
19059;SDS011;9663;48.996;8.334;2024-01-15T06:22:28;17.20;;;9.23;;
19059;SDS011;9663;48.996;8.334;2024-01-15T06:24:54;19.25;;;10.35;;
19059;SDS011;9663;48.996;8.334;2024-01-15T06:27:20;18.20;;;9.65;;
19059;SDS011;9663;48.996;8.334;2024-01-15T06:29:47;19.30;;;10.02;;
19059;SDS011;9663;48.996;8.334;2024-01-15T06:32:13;18.90;;;10.38;;
19059;SDS011;9663;48.996;8.334;2024-01-15T06:34:38;19.00;;;10.48;;
19059;SDS011;9663;48.996;8.334;2024-01-15T06:37:04;19.00;;;9.95;;
19059;SDS011;9663;48.996;8.334;2024-01-15T06:39:30;18.23;;;10.05;;
19059;SDS011;9663;48.996;8.334;2024-01-15T06:41:56;15.27;;;8.57;;
19059;SDS011;9663;48.996;8.334;2024-01-15T06:44:22;18.10;;;9.45;;
19059;SDS011;9663;48.996;8.334;2024-01-15T06:46:48;18.00;;;9.88;;
19059;SDS011;9663;48.996;8.334;2024-01-15T06:49:14;16.88;;;8.88;;
19059;SDS011;9663;48.996;8.334;2024-01-15T06:51:40;18.90;;;9.55;;
19059;SDS011;9663;48.996;8.334;2024-01-15T06:54:06;17.80;;;9.88;;
19059;SDS011;9663;48.996;8.334;2024-01-15T06:56:32;19.40;;;10.18;;
19059;SDS011;9663;48.996;8.334;2024-01-15T06:58:58;16.55;;;8.98;;
19059;SDS011;9663;48.996;8.334;2024-01-15T07:01:24;19.88;;;10.18;;
19059;SDS011;9663;48.996;8.334;2024-01-15T07:03:49;21.80;;;10.25;;
19059;SDS011;9663;48.996;8.334;2024-01-15T07:06:15;18.25;;;10.02;;
19059;SDS011;9663;48.996;8.334;2024-01-15T07:08:41;18.73;;;10.77;;
19059;SDS011;9663;48.996;8.334;2024-01-15T07:11:07;20.58;;;10.60;;
19059;SDS011;9663;48.996;8.334;2024-01-15T07:13:34;20.48;;;11.07;;
19059;SDS011;9663;48.996;8.334;2024-01-15T07:16:02;17.98;;;9.35;;
19059;SDS011;9663;48.996;8.334;2024-01-15T07:18:28;17.00;;;9.35;;
19059;SDS011;9663;48.996;8.334;2024-01-15T07:20:53;16.65;;;8.63;;
19059;SDS011;9663;48.996;8.334;2024-01-15T07:23:19;16.98;;;9.13;;
19059;SDS011;9663;48.996;8.334;2024-01-15T07:25:45;18.15;;;9.73;;
19059;SDS011;9663;48.996;8.334;2024-01-15T07:28:10;16.50;;;9.32;;
19059;SDS011;9663;48.996;8.334;2024-01-15T07:30:36;17.80;;;9.60;;
19059;SDS011;9663;48.996;8.334;2024-01-15T07:33:04;15.50;;;8.13;;
19059;SDS011;9663;48.996;8.334;2024-01-15T07:35:30;15.50;;;8.38;;
19059;SDS011;9663;48.996;8.334;2024-01-15T07:37:56;16.08;;;9.52;;
19059;SDS011;9663;48.996;8.334;2024-01-15T07:40:21;15.82;;;8.88;;
19059;SDS011;9663;48.996;8.334;2024-01-15T07:42:47;17.35;;;9.57;;
19059;SDS011;9663;48.996;8.334;2024-01-15T07:45:13;15.93;;;9.02;;
19059;SDS011;9663;48.996;8.334;2024-01-15T07:47:39;17.48;;;9.32;;
19059;SDS011;9663;48.996;8.334;2024-01-15T07:50:05;16.90;;;9.00;;
19059;SDS011;9663;48.996;8.334;2024-01-15T07:52:30;16.38;;;9.00;;
19059;SDS011;9663;48.996;8.334;2024-01-15T07:54:56;15.60;;;8.05;;
19059;SDS011;9663;48.996;8.334;2024-01-15T07:57:24;15.20;;;8.40;;
19059;SDS011;9663;48.996;8.334;2024-01-15T07:59:50;14.48;;;8.20;;
19059;SDS011;9663;48.996;8.334;2024-01-15T08:02:16;15.32;;;7.70;;
19059;SDS011;9663;48.996;8.334;2024-01-15T08:04:42;14.45;;;7.55;;
19059;SDS011;9663;48.996;8.334;2024-01-15T08:07:08;14.70;;;7.28;;
19059;SDS011;9663;48.996;8.334;2024-01-15T08:09:34;15.55;;;8.02;;
19059;SDS011;9663;48.996;8.334;2024-01-15T08:12:00;13.65;;;7.57;;
19059;SDS011;9663;48.996;8.334;2024-01-15T08:14:25;13.52;;;6.80;;
19059;SDS011;9663;48.996;8.334;2024-01-15T08:16:51;13.65;;;7.78;;
19059;SDS011;9663;48.996;8.334;2024-01-15T08:19:17;12.90;;;6.82;;
19059;SDS011;9663;48.996;8.334;2024-01-15T08:21:43;14.65;;;7.63;;
19059;SDS011;9663;48.996;8.334;2024-01-15T08:24:08;13.20;;;7.65;;
19059;SDS011;9663;48.996;8.334;2024-01-15T08:26:34;12.45;;;6.40;;
19059;SDS011;9663;48.996;8.334;2024-01-15T08:29:00;12.77;;;7.00;;
19059;SDS011;9663;48.996;8.334;2024-01-15T08:31:25;12.23;;;6.88;;
19059;SDS011;9663;48.996;8.334;2024-01-15T08:33:52;14.05;;;7.53;;
19059;SDS011;9663;48.996;8.334;2024-01-15T08:36:18;12.20;;;6.55;;
19059;SDS011;9663;48.996;8.334;2024-01-15T08:38:44;14.27;;;7.30;;
19059;SDS011;9663;48.996;8.334;2024-01-15T08:41:10;14.43;;;7.88;;
19059;SDS011;9663;48.996;8.334;2024-01-15T08:43:35;14.45;;;7.22;;
19059;SDS011;9663;48.996;8.334;2024-01-15T08:46:02;14.07;;;7.85;;
19059;SDS011;9663;48.996;8.334;2024-01-15T08:48:28;14.63;;;7.65;;
19059;SDS011;9663;48.996;8.334;2024-01-15T08:50:54;13.43;;;7.55;;
19059;SDS011;9663;48.996;8.334;2024-01-15T08:53:21;14.05;;;7.63;;
19059;SDS011;9663;48.996;8.334;2024-01-15T08:55:47;15.70;;;8.93;;
19059;SDS011;9663;48.996;8.334;2024-01-15T08:58:13;15.52;;;8.57;;
19059;SDS011;9663;48.996;8.334;2024-01-15T09:00:39;15.50;;;7.75;;
19059;SDS011;9663;48.996;8.334;2024-01-15T09:03:05;12.57;;;6.53;;
19059;SDS011;9663;48.996;8.334;2024-01-15T09:05:31;14.13;;;7.75;;
19059;SDS011;9663;48.996;8.334;2024-01-15T09:07:57;14.20;;;7.78;;
19059;SDS011;9663;48.996;8.334;2024-01-15T09:10:22;14.23;;;7.47;;
19059;SDS011;9663;48.996;8.334;2024-01-15T09:12:49;14.85;;;7.68;;
19059;SDS011;9663;48.996;8.334;2024-01-15T09:15:16;13.65;;;7.75;;
19059;SDS011;9663;48.996;8.334;2024-01-15T09:17:42;14.43;;;7.80;;
19059;SDS011;9663;48.996;8.334;2024-01-15T09:20:08;14.85;;;7.85;;
19059;SDS011;9663;48.996;8.334;2024-01-15T09:22:40;14.45;;;7.85;;
19059;SDS011;9663;48.996;8.334;2024-01-15T09:25:08;11.63;;;6.40;;
19059;SDS011;9663;48.996;8.334;2024-01-15T09:27:37;14.13;;;7.45;;
19059;SDS011;9663;48.996;8.334;2024-01-15T09:30:03;14.88;;;7.60;;
19059;SDS011;9663;48.996;8.334;2024-01-15T09:32:31;13.57;;;7.28;;
19059;SDS011;9663;48.996;8.334;2024-01-15T09:34:59;13.63;;;7.32;;
19059;SDS011;9663;48.996;8.334;2024-01-15T09:37:24;13.48;;;7.30;;
19059;SDS011;9663;48.996;8.334;2024-01-15T09:39:50;15.50;;;8.30;;
19059;SDS011;9663;48.996;8.334;2024-01-15T09:42:16;14.65;;;7.95;;
19059;SDS011;9663;48.996;8.334;2024-01-15T09:44:43;14.15;;;7.80;;
19059;SDS011;9663;48.996;8.334;2024-01-15T09:47:10;13.27;;;7.20;;
19059;SDS011;9663;48.996;8.334;2024-01-15T09:49:37;12.95;;;7.40;;
19059;SDS011;9663;48.996;8.334;2024-01-15T09:52:05;14.07;;;7.65;;
19059;SDS011;9663;48.996;8.334;2024-01-15T09:54:33;11.85;;;6.72;;
19059;SDS011;9663;48.996;8.334;2024-01-15T09:57:00;11.68;;;6.90;;
19059;SDS011;9663;48.996;8.334;2024-01-15T09:59:26;12.50;;;7.10;;
19059;SDS011;9663;48.996;8.334;2024-01-15T10:01:53;13.50;;;6.90;;
19059;SDS011;9663;48.996;8.334;2024-01-15T10:04:20;12.30;;;6.53;;
19059;SDS011;9663;48.996;8.334;2024-01-15T10:06:46;12.57;;;6.68;;
19059;SDS011;9663;48.996;8.334;2024-01-15T10:09:17;13.00;;;6.63;;
19059;SDS011;9663;48.996;8.334;2024-01-15T10:11:43;14.63;;;7.63;;
19059;SDS011;9663;48.996;8.334;2024-01-15T10:14:10;12.32;;;6.43;;
19059;SDS011;9663;48.996;8.334;2024-01-15T10:16:37;13.23;;;7.10;;
19059;SDS011;9663;48.996;8.334;2024-01-15T10:19:09;11.77;;;6.25;;
19059;SDS011;9663;48.996;8.334;2024-01-15T10:21:37;13.30;;;6.45;;
19059;SDS011;9663;48.996;8.334;2024-01-15T10:24:03;14.05;;;6.93;;
19059;SDS011;9663;48.996;8.334;2024-01-15T10:26:30;11.63;;;6.32;;
19059;SDS011;9663;48.996;8.334;2024-01-15T10:29:00;12.27;;;6.72;;
19059;SDS011;9663;48.996;8.334;2024-01-15T10:31:26;12.10;;;6.45;;
19059;SDS011;9663;48.996;8.334;2024-01-15T10:33:53;12.13;;;6.70;;
19059;SDS011;9663;48.996;8.334;2024-01-15T10:36:19;13.73;;;7.10;;
19059;SDS011;9663;48.996;8.334;2024-01-15T10:38:45;12.02;;;6.10;;
19059;SDS011;9663;48.996;8.334;2024-01-15T10:41:12;11.63;;;6.13;;
19059;SDS011;9663;48.996;8.334;2024-01-15T10:43:38;12.25;;;6.13;;
19059;SDS011;9663;48.996;8.334;2024-01-15T10:46:06;11.38;;;6.30;;
19059;SDS011;9663;48.996;8.334;2024-01-15T10:48:33;13.00;;;6.68;;
19059;SDS011;9663;48.996;8.334;2024-01-15T10:51:00;13.50;;;6.40;;
19059;SDS011;9663;48.996;8.334;2024-01-15T10:53:35;11.45;;;5.85;;
19059;SDS011;9663;48.996;8.334;2024-01-15T10:56:07;12.73;;;5.75;;
19059;SDS011;9663;48.996;8.334;2024-01-15T10:58:38;10.95;;;5.45;;
19059;SDS011;9663;48.996;8.334;2024-01-15T11:01:05;12.35;;;6.25;;
19059;SDS011;9663;48.996;8.334;2024-01-15T11:03:31;10.82;;;6.07;;
19059;SDS011;9663;48.996;8.334;2024-01-15T11:05:58;11.23;;;5.90;;
19059;SDS011;9663;48.996;8.334;2024-01-15T11:08:25;12.55;;;6.40;;
19059;SDS011;9663;48.996;8.334;2024-01-15T11:10:51;12.45;;;6.80;;
19059;SDS011;9663;48.996;8.334;2024-01-15T11:13:21;11.40;;;6.22;;
19059;SDS011;9663;48.996;8.334;2024-01-15T11:16:06;12.77;;;6.90;;
19059;SDS011;9663;48.996;8.334;2024-01-15T11:18:37;11.15;;;5.97;;
19059;SDS011;9663;48.996;8.334;2024-01-15T11:23:43;12.48;;;6.30;;
19059;SDS011;9663;48.996;8.334;2024-01-15T11:29:06;12.88;;;7.10;;
19059;SDS011;9663;48.996;8.334;2024-01-15T11:34:03;13.23;;;6.95;;
19059;SDS011;9663;48.996;8.334;2024-01-15T11:41:52;11.52;;;6.13;;
19059;SDS011;9663;48.996;8.334;2024-01-15T11:44:26;12.57;;;6.35;;
19059;SDS011;9663;48.996;8.334;2024-01-15T11:52:37;11.10;;;5.95;;
19059;SDS011;9663;48.996;8.334;2024-01-15T11:55:11;12.18;;;5.72;;
19059;SDS011;9663;48.996;8.334;2024-01-15T11:58:01;9.88;;;5.07;;
19059;SDS011;9663;48.996;8.334;2024-01-15T12:00:32;10.60;;;5.47;;
19059;SDS011;9663;48.996;8.334;2024-01-15T12:02:58;10.85;;;5.90;;
19059;SDS011;9663;48.996;8.334;2024-01-15T12:05:24;9.18;;;5.00;;
19059;SDS011;9663;48.996;8.334;2024-01-15T12:07:50;10.63;;;5.40;;
19059;SDS011;9663;48.996;8.334;2024-01-15T12:10:16;10.38;;;5.68;;
19059;SDS011;9663;48.996;8.334;2024-01-15T12:12:48;10.10;;;5.03;;
19059;SDS011;9663;48.996;8.334;2024-01-15T12:15:30;10.68;;;5.50;;
19059;SDS011;9663;48.996;8.334;2024-01-15T12:17:58;9.82;;;5.05;;
19059;SDS011;9663;48.996;8.334;2024-01-15T12:20:27;10.30;;;5.50;;
19059;SDS011;9663;48.996;8.334;2024-01-15T12:22:57;10.40;;;4.85;;
19059;SDS011;9663;48.996;8.334;2024-01-15T12:25:23;10.13;;;5.20;;
19059;SDS011;9663;48.996;8.334;2024-01-15T12:27:52;8.48;;;4.63;;
19059;SDS011;9663;48.996;8.334;2024-01-15T12:30:19;10.05;;;5.10;;
19059;SDS011;9663;48.996;8.334;2024-01-15T12:32:45;8.65;;;4.28;;
19059;SDS011;9663;48.996;8.334;2024-01-15T12:35:13;8.45;;;4.28;;
19059;SDS011;9663;48.996;8.334;2024-01-15T12:37:43;8.43;;;4.25;;
19059;SDS011;9663;48.996;8.334;2024-01-15T12:40:11;8.93;;;3.85;;
19059;SDS011;9663;48.996;8.334;2024-01-15T12:42:39;8.80;;;4.15;;
19059;SDS011;9663;48.996;8.334;2024-01-15T12:45:05;7.93;;;3.88;;
19059;SDS011;9663;48.996;8.334;2024-01-15T12:47:33;6.82;;;3.58;;
19059;SDS011;9663;48.996;8.334;2024-01-15T12:49:59;8.27;;;4.50;;
19059;SDS011;9663;48.996;8.334;2024-01-15T12:52:26;6.53;;;3.45;;
19059;SDS011;9663;48.996;8.334;2024-01-15T12:54:53;7.82;;;4.20;;
19059;SDS011;9663;48.996;8.334;2024-01-15T12:57:19;7.68;;;3.95;;
19059;SDS011;9663;48.996;8.334;2024-01-15T12:59:45;6.63;;;3.45;;
19059;SDS011;9663;48.996;8.334;2024-01-15T13:02:12;7.00;;;3.58;;
19059;SDS011;9663;48.996;8.334;2024-01-15T13:04:39;6.93;;;3.65;;
19059;SDS011;9663;48.996;8.334;2024-01-15T13:07:08;7.65;;;3.60;;
19059;SDS011;9663;48.996;8.334;2024-01-15T13:09:34;5.78;;;2.80;;
19059;SDS011;9663;48.996;8.334;2024-01-15T13:12:01;6.82;;;3.40;;
19059;SDS011;9663;48.996;8.334;2024-01-15T13:14:28;8.32;;;3.97;;
19059;SDS011;9663;48.996;8.334;2024-01-15T13:16:54;6.43;;;3.15;;
19059;SDS011;9663;48.996;8.334;2024-01-15T13:19:21;7.40;;;3.60;;
19059;SDS011;9663;48.996;8.334;2024-01-15T13:21:48;6.00;;;2.80;;
19059;SDS011;9663;48.996;8.334;2024-01-15T13:24:15;7.07;;;3.45;;
19059;SDS011;9663;48.996;8.334;2024-01-15T13:26:40;5.20;;;2.67;;
19059;SDS011;9663;48.996;8.334;2024-01-15T13:29:06;6.25;;;3.00;;
19059;SDS011;9663;48.996;8.334;2024-01-15T13:31:32;7.18;;;3.05;;
19059;SDS011;9663;48.996;8.334;2024-01-15T13:33:58;6.43;;;3.03;;
19059;SDS011;9663;48.996;8.334;2024-01-15T13:36:27;5.75;;;2.88;;
19059;SDS011;9663;48.996;8.334;2024-01-15T13:38:53;7.47;;;3.83;;
19059;SDS011;9663;48.996;8.334;2024-01-15T13:41:19;6.15;;;2.88;;
19059;SDS011;9663;48.996;8.334;2024-01-15T13:43:52;6.63;;;3.25;;
19059;SDS011;9663;48.996;8.334;2024-01-15T13:46:20;6.70;;;3.35;;
19059;SDS011;9663;48.996;8.334;2024-01-15T13:48:51;6.38;;;3.20;;
19059;SDS011;9663;48.996;8.334;2024-01-15T13:51:17;7.28;;;3.58;;
19059;SDS011;9663;48.996;8.334;2024-01-15T13:53:43;6.18;;;3.10;;
19059;SDS011;9663;48.996;8.334;2024-01-15T13:56:08;4.97;;;2.63;;
19059;SDS011;9663;48.996;8.334;2024-01-15T13:58:35;6.32;;;3.25;;
19059;SDS011;9663;48.996;8.334;2024-01-15T14:01:02;7.50;;;3.55;;
19059;SDS011;9663;48.996;8.334;2024-01-15T14:03:31;7.05;;;3.85;;
19059;SDS011;9663;48.996;8.334;2024-01-15T14:05:57;8.25;;;4.80;;
19059;SDS011;9663;48.996;8.334;2024-01-15T14:08:23;7.05;;;3.80;;
19059;SDS011;9663;48.996;8.334;2024-01-15T14:10:49;6.50;;;3.30;;
19059;SDS011;9663;48.996;8.334;2024-01-15T14:13:15;6.15;;;3.28;;
19059;SDS011;9663;48.996;8.334;2024-01-15T14:15:40;6.03;;;3.38;;
19059;SDS011;9663;48.996;8.334;2024-01-15T14:18:06;5.55;;;2.97;;
19059;SDS011;9663;48.996;8.334;2024-01-15T14:20:32;5.57;;;3.08;;
19059;SDS011;9663;48.996;8.334;2024-01-15T14:22:58;6.43;;;3.28;;
19059;SDS011;9663;48.996;8.334;2024-01-15T14:25:23;6.53;;;3.20;;
19059;SDS011;9663;48.996;8.334;2024-01-15T14:27:49;8.00;;;4.93;;
19059;SDS011;9663;48.996;8.334;2024-01-15T14:30:15;6.85;;;3.20;;
19059;SDS011;9663;48.996;8.334;2024-01-15T14:32:42;6.55;;;3.58;;
19059;SDS011;9663;48.996;8.334;2024-01-15T14:35:08;6.55;;;3.28;;
19059;SDS011;9663;48.996;8.334;2024-01-15T14:37:36;6.63;;;3.28;;
19059;SDS011;9663;48.996;8.334;2024-01-15T14:40:03;7.25;;;4.00;;
19059;SDS011;9663;48.996;8.334;2024-01-15T14:42:33;6.38;;;3.58;;
19059;SDS011;9663;48.996;8.334;2024-01-15T14:44:59;5.28;;;3.03;;
19059;SDS011;9663;48.996;8.334;2024-01-15T14:47:27;6.13;;;3.03;;
19059;SDS011;9663;48.996;8.334;2024-01-15T14:49:53;7.55;;;2.97;;
19059;SDS011;9663;48.996;8.334;2024-01-15T14:52:18;6.05;;;2.92;;
19059;SDS011;9663;48.996;8.334;2024-01-15T14:54:45;5.70;;;2.78;;
19059;SDS011;9663;48.996;8.334;2024-01-15T14:57:12;5.55;;;2.63;;
19059;SDS011;9663;48.996;8.334;2024-01-15T14:59:38;5.47;;;2.63;;
19059;SDS011;9663;48.996;8.334;2024-01-15T15:02:04;6.30;;;3.13;;